<?xml version="1.0" encoding="UTF-8" standalone="no" ?><gpx xmlns="http://www.topografix.com/GPX/1/1" xmlns:gpxx="http://www.garmin.com/xmlschemas/GpxExtensions/v3" xmlns:wptx1="http://www.garmin.com/xmlschemas/WaypointExtension/v1" xmlns:gpxtpx="http://www.garmin.com/xmlschemas/TrackPointExtension/v1" creator="GuideVTT.com" version="1.1" xmlns:xsi="http://www.w3.org/2001/XMLSchema-instance" xsi:schemaLocation="http://www.topografix.com/GPX/1/1 http://www.topografix.com/GPX/1/1/gpx.xsd http://www.garmin.com/xmlschemas/GpxExtensions/v3 http://www8.garmin.com/xmlschemas/GpxExtensionsv3.xsd http://www.garmin.com/xmlschemas/WaypointExtension/v1 http://www8.garmin.com/xmlschemas/WaypointExtensionv1.xsd http://www.garmin.com/xmlschemas/TrackPointExtension/v1 http://www.garmin.com/xmlschemas/TrackPointExtensionv1.xsd">
<metadata><link href="http://www.garmin.com"><text>Garmin International</text></link><time>2013-06-22T15:13:50Z</time></metadata>
<trk><name>course_benou_1.gpx</name><extensions><gpxx:TrackExtension><gpxx:DisplayColor>Cyan</gpxx:DisplayColor></gpxx:TrackExtension></extensions><trkseg>
<trkpt lat="46.26967778" lon="7.30055669"><ele></ele><time>2014-5-28T3:25:47Z</time></trkpt>
<trkpt lat="46.26967778" lon="7.30055669"><ele></ele><time>2014-5-28T3:25:50Z</time></trkpt>
<trkpt lat="46.31218853" lon="7.53203963"><ele></ele><time>2014-5-28T3:25:53Z</time></trkpt>
<trkpt lat="46.31220044" lon="7.53201297"><ele></ele><time>2014-5-28T3:25:56Z</time></trkpt>
<trkpt lat="46.31220220" lon="7.53200887"><ele></ele><time>2014-5-28T3:25:59Z</time></trkpt>
<trkpt lat="46.31220228" lon="7.53200702"><ele></ele><time>2014-5-28T3:26:2Z</time></trkpt>
<trkpt lat="46.31221946" lon="7.53198464"><ele></ele><time>2014-5-28T3:26:5Z</time></trkpt>
<trkpt lat="46.31227118" lon="7.53198146"><ele></ele><time>2014-5-28T3:26:8Z</time></trkpt>
<trkpt lat="46.31228015" lon="7.53199085"><ele></ele><time>2014-5-28T3:26:11Z</time></trkpt>
<trkpt lat="46.31232164" lon="7.53202848"><ele></ele><time>2014-5-28T3:26:14Z</time></trkpt>
<trkpt lat="46.31236933" lon="7.53206025"><ele></ele><time>2014-5-28T3:26:17Z</time></trkpt>
<trkpt lat="46.31243739" lon="7.53210015"><ele></ele><time>2014-5-28T3:26:20Z</time></trkpt>
<trkpt lat="46.31245432" lon="7.53213082"><ele></ele><time>2014-5-28T3:26:23Z</time></trkpt>
<trkpt lat="46.31261257" lon="7.53221649"><ele></ele><time>2014-5-28T3:26:26Z</time></trkpt>
<trkpt lat="46.31266857" lon="7.53223618"><ele></ele><time>2014-5-28T3:26:29Z</time></trkpt>
<trkpt lat="46.31286579" lon="7.53229788"><ele></ele><time>2014-5-28T3:26:32Z</time></trkpt>
<trkpt lat="46.31301650" lon="7.53232964"><ele></ele><time>2014-5-28T3:26:35Z</time></trkpt>
<trkpt lat="46.31316436" lon="7.53240382"><ele></ele><time>2014-5-28T3:26:38Z</time></trkpt>
<trkpt lat="46.31333694" lon="7.53236384"><ele></ele><time>2014-5-28T3:26:41Z</time></trkpt>
<trkpt lat="46.31343727" lon="7.53229427"><ele></ele><time>2014-5-28T3:26:44Z</time></trkpt>
<trkpt lat="46.31346392" lon="7.53220526"><ele></ele><time>2014-5-28T3:26:47Z</time></trkpt>
<trkpt lat="46.31342512" lon="7.53226980"><ele></ele><time>2014-5-28T3:26:50Z</time></trkpt>
<trkpt lat="46.31345957" lon="7.53215195"><ele></ele><time>2014-5-28T3:26:53Z</time></trkpt>
<trkpt lat="46.31345529" lon="7.53213543"><ele></ele><time>2014-5-28T3:26:56Z</time></trkpt>
<trkpt lat="46.31345680" lon="7.53211917"><ele></ele><time>2014-5-28T3:26:59Z</time></trkpt>
<trkpt lat="46.31342998" lon="7.53197283"><ele></ele><time>2014-5-28T3:27:2Z</time></trkpt>
<trkpt lat="46.31346158" lon="7.53180309"><ele></ele><time>2014-5-28T3:27:5Z</time></trkpt>
<trkpt lat="46.31346283" lon="7.53171827"><ele></ele><time>2014-5-28T3:27:8Z</time></trkpt>
<trkpt lat="46.31344523" lon="7.53162255"><ele></ele><time>2014-5-28T3:27:11Z</time></trkpt>
<trkpt lat="46.31343853" lon="7.53162464"><ele></ele><time>2014-5-28T3:27:14Z</time></trkpt>
<trkpt lat="46.31338329" lon="7.53165683"><ele></ele><time>2014-5-28T3:27:17Z</time></trkpt>
<trkpt lat="46.31328086" lon="7.53156790"><ele></ele><time>2014-5-28T3:27:20Z</time></trkpt>
<trkpt lat="46.31319126" lon="7.53150067"><ele></ele><time>2014-5-28T3:27:23Z</time></trkpt>
<trkpt lat="46.31310015" lon="7.53144812"><ele></ele><time>2014-5-28T3:27:26Z</time></trkpt>
<trkpt lat="46.31311423" lon="7.53142457"><ele></ele><time>2014-5-28T3:27:29Z</time></trkpt>
<trkpt lat="46.31310987" lon="7.53139204"><ele></ele><time>2014-5-28T3:27:32Z</time></trkpt>
<trkpt lat="46.31312228" lon="7.53131929"><ele></ele><time>2014-5-28T3:27:35Z</time></trkpt>
<trkpt lat="46.31314927" lon="7.53122449"><ele></ele><time>2014-5-28T3:27:38Z</time></trkpt>
<trkpt lat="46.31311113" lon="7.53112122"><ele></ele><time>2014-5-28T3:27:41Z</time></trkpt>
<trkpt lat="46.31300275" lon="7.53106515"><ele></ele><time>2014-5-28T3:27:44Z</time></trkpt>
<trkpt lat="46.31270486" lon="7.53118945"><ele></ele><time>2014-5-28T3:27:47Z</time></trkpt>
<trkpt lat="46.31262062" lon="7.53118149"><ele></ele><time>2014-5-28T3:27:50Z</time></trkpt>
<trkpt lat="46.31244997" lon="7.53101989"><ele></ele><time>2014-5-28T3:27:53Z</time></trkpt>
<trkpt lat="46.31233539" lon="7.53091922"><ele></ele><time>2014-5-28T3:27:56Z</time></trkpt>
<trkpt lat="46.31227847" lon="7.53087790"><ele></ele><time>2014-5-28T3:27:59Z</time></trkpt>
<trkpt lat="46.31216674" lon="7.53056542"><ele></ele><time>2014-5-28T3:28:2Z</time></trkpt>
<trkpt lat="46.31214738" lon="7.53055427"><ele></ele><time>2014-5-28T3:28:5Z</time></trkpt>
<trkpt lat="46.31207672" lon="7.53046534"><ele></ele><time>2014-5-28T3:28:8Z</time></trkpt>
<trkpt lat="46.31188159" lon="7.53031597"><ele></ele><time>2014-5-28T3:28:11Z</time></trkpt>
<trkpt lat="46.31175108" lon="7.53034607"><ele></ele><time>2014-5-28T3:28:14Z</time></trkpt>
<trkpt lat="46.31163223" lon="7.53023366"><ele></ele><time>2014-5-28T3:28:17Z</time></trkpt>
<trkpt lat="46.31158856" lon="7.53020676"><ele></ele><time>2014-5-28T3:28:20Z</time></trkpt>
<trkpt lat="46.31150348" lon="7.53006670"><ele></ele><time>2014-5-28T3:28:23Z</time></trkpt>
<trkpt lat="46.31143207" lon="7.52993678"><ele></ele><time>2014-5-28T3:28:26Z</time></trkpt>
<trkpt lat="46.31133400" lon="7.52987576"><ele></ele><time>2014-5-28T3:28:29Z</time></trkpt>
<trkpt lat="46.31126242" lon="7.52977727"><ele></ele><time>2014-5-28T3:28:32Z</time></trkpt>
<trkpt lat="46.31118338" lon="7.52964953"><ele></ele><time>2014-5-28T3:28:35Z</time></trkpt>
<trkpt lat="46.31106620" lon="7.52959278"><ele></ele><time>2014-5-28T3:28:38Z</time></trkpt>
<trkpt lat="46.31104155" lon="7.52949773"><ele></ele><time>2014-5-28T3:28:41Z</time></trkpt>
<trkpt lat="46.31101809" lon="7.52920688"><ele></ele><time>2014-5-28T3:28:44Z</time></trkpt>
<trkpt lat="46.31089512" lon="7.52922507"><ele></ele><time>2014-5-28T3:28:47Z</time></trkpt>
<trkpt lat="46.31065733" lon="7.52929456"><ele></ele><time>2014-5-28T3:28:50Z</time></trkpt>
<trkpt lat="46.31056982" lon="7.52929615"><ele></ele><time>2014-5-28T3:28:53Z</time></trkpt>
<trkpt lat="46.31048022" lon="7.52923069"><ele></ele><time>2014-5-28T3:28:56Z</time></trkpt>
<trkpt lat="46.31044309" lon="7.52921199"><ele></ele><time>2014-5-28T3:28:59Z</time></trkpt>
<trkpt lat="46.31038207" lon="7.52895794"><ele></ele><time>2014-5-28T3:29:2Z</time></trkpt>
<trkpt lat="46.31036052" lon="7.52882400"><ele></ele><time>2014-5-28T3:29:5Z</time></trkpt>
<trkpt lat="46.31032918" lon="7.52868318"><ele></ele><time>2014-5-28T3:29:8Z</time></trkpt>
<trkpt lat="46.31029808" lon="7.52849283"><ele></ele><time>2014-5-28T3:29:11Z</time></trkpt>
<trkpt lat="46.31031317" lon="7.52845494"><ele></ele><time>2014-5-28T3:29:14Z</time></trkpt>
<trkpt lat="46.31033119" lon="7.52834606"><ele></ele><time>2014-5-28T3:29:17Z</time></trkpt>
<trkpt lat="46.31032314" lon="7.52836685"><ele></ele><time>2014-5-28T3:29:20Z</time></trkpt>
<trkpt lat="46.31043303" lon="7.52829409"><ele></ele><time>2014-5-28T3:29:23Z</time></trkpt>
<trkpt lat="46.31044116" lon="7.52831178"><ele></ele><time>2014-5-28T3:29:26Z</time></trkpt>
<trkpt lat="46.31046656" lon="7.52839694"><ele></ele><time>2014-5-28T3:29:29Z</time></trkpt>
<trkpt lat="46.31050226" lon="7.52845536"><ele></ele><time>2014-5-28T3:29:32Z</time></trkpt>
<trkpt lat="46.31069454" lon="7.52858419"><ele></ele><time>2014-5-28T3:29:35Z</time></trkpt>
<trkpt lat="46.31086143" lon="7.52877655"><ele></ele><time>2014-5-28T3:29:38Z</time></trkpt>
<trkpt lat="46.31108204" lon="7.52888057"><ele></ele><time>2014-5-28T3:29:41Z</time></trkpt>
<trkpt lat="46.31124565" lon="7.52900085"><ele></ele><time>2014-5-28T3:29:44Z</time></trkpt>
<trkpt lat="46.31129754" lon="7.52908828"><ele></ele><time>2014-5-28T3:29:47Z</time></trkpt>
<trkpt lat="46.31134263" lon="7.52917419"><ele></ele><time>2014-5-28T3:29:50Z</time></trkpt>
<trkpt lat="46.31158562" lon="7.52928785"><ele></ele><time>2014-5-28T3:29:53Z</time></trkpt>
<trkpt lat="46.31187706" lon="7.52925483"><ele></ele><time>2014-5-28T3:29:56Z</time></trkpt>
<trkpt lat="46.31212173" lon="7.52936488"><ele></ele><time>2014-5-28T3:29:59Z</time></trkpt>
<trkpt lat="46.31226146" lon="7.52961902"><ele></ele><time>2014-5-28T3:30:2Z</time></trkpt>
<trkpt lat="46.31241736" lon="7.52980376"><ele></ele><time>2014-5-28T3:30:5Z</time></trkpt>
<trkpt lat="46.31257083" lon="7.52956429"><ele></ele><time>2014-5-28T3:30:8Z</time></trkpt>
<trkpt lat="46.31264753" lon="7.52942062"><ele></ele><time>2014-5-28T3:30:11Z</time></trkpt>
<trkpt lat="46.31270637" lon="7.52930143"><ele></ele><time>2014-5-28T3:30:14Z</time></trkpt>
<trkpt lat="46.31299580" lon="7.52932984"><ele></ele><time>2014-5-28T3:30:17Z</time></trkpt>
<trkpt lat="46.31321297" lon="7.52935264"><ele></ele><time>2014-5-28T3:30:20Z</time></trkpt>
<trkpt lat="46.31330224" lon="7.52947267"><ele></ele><time>2014-5-28T3:30:23Z</time></trkpt>
<trkpt lat="46.31365646" lon="7.52928383"><ele></ele><time>2014-5-28T3:30:26Z</time></trkpt>
<trkpt lat="46.31390498" lon="7.52922926"><ele></ele><time>2014-5-28T3:30:29Z</time></trkpt>
<trkpt lat="46.31410522" lon="7.52922197"><ele></ele><time>2014-5-28T3:30:32Z</time></trkpt>
<trkpt lat="46.31434796" lon="7.52914310"><ele></ele><time>2014-5-28T3:30:35Z</time></trkpt>
<trkpt lat="46.31463018" lon="7.52912424"><ele></ele><time>2014-5-28T3:30:38Z</time></trkpt>
<trkpt lat="46.31489078" lon="7.52920873"><ele></ele><time>2014-5-28T3:30:41Z</time></trkpt>
<trkpt lat="46.31516939" lon="7.52919464"><ele></ele><time>2014-5-28T3:30:44Z</time></trkpt>
<trkpt lat="46.31532454" lon="7.52943529"><ele></ele><time>2014-5-28T3:30:47Z</time></trkpt>
<trkpt lat="46.31566828" lon="7.52925835"><ele></ele><time>2014-5-28T3:30:50Z</time></trkpt>
<trkpt lat="46.31595293" lon="7.52907470"><ele></ele><time>2014-5-28T3:30:53Z</time></trkpt>
<trkpt lat="46.31622660" lon="7.52899876"><ele></ele><time>2014-5-28T3:30:56Z</time></trkpt>
<trkpt lat="46.31626809" lon="7.52900303"><ele></ele><time>2014-5-28T3:30:59Z</time></trkpt>
<trkpt lat="46.31633749" lon="7.52899474"><ele></ele><time>2014-5-28T3:31:2Z</time></trkpt>
<trkpt lat="46.31649717" lon="7.52889784"><ele></ele><time>2014-5-28T3:31:5Z</time></trkpt>
<trkpt lat="46.31668123" lon="7.52880095"><ele></ele><time>2014-5-28T3:31:8Z</time></trkpt>
<trkpt lat="46.31687134" lon="7.52897462"><ele></ele><time>2014-5-28T3:31:11Z</time></trkpt>
<trkpt lat="46.31697955" lon="7.52904176"><ele></ele><time>2014-5-28T3:31:14Z</time></trkpt>
<trkpt lat="46.31725154" lon="7.52926623"><ele></ele><time>2014-5-28T3:31:17Z</time></trkpt>
<trkpt lat="46.31745388" lon="7.52926899"><ele></ele><time>2014-5-28T3:31:20Z</time></trkpt>
<trkpt lat="46.31772235" lon="7.52910588"><ele></ele><time>2014-5-28T3:31:23Z</time></trkpt>
<trkpt lat="46.31781614" lon="7.52902307"><ele></ele><time>2014-5-28T3:31:26Z</time></trkpt>
<trkpt lat="46.31809057" lon="7.52890178"><ele></ele><time>2014-5-28T3:31:29Z</time></trkpt>
<trkpt lat="46.31833088" lon="7.52883783"><ele></ele><time>2014-5-28T3:31:32Z</time></trkpt>
<trkpt lat="46.31834915" lon="7.52883087"><ele></ele><time>2014-5-28T3:31:35Z</time></trkpt>
<trkpt lat="46.31842073" lon="7.52879533"><ele></ele><time>2014-5-28T3:31:38Z</time></trkpt>
<trkpt lat="46.31849902" lon="7.52869483"><ele></ele><time>2014-5-28T3:31:41Z</time></trkpt>
<trkpt lat="46.31852718" lon="7.52865485"><ele></ele><time>2014-5-28T3:31:44Z</time></trkpt>
<trkpt lat="46.31863967" lon="7.52849794"><ele></ele><time>2014-5-28T3:31:47Z</time></trkpt>
<trkpt lat="46.31877797" lon="7.52822570"><ele></ele><time>2014-5-28T3:31:50Z</time></trkpt>
<trkpt lat="46.31885039" lon="7.52807625"><ele></ele><time>2014-5-28T3:31:53Z</time></trkpt>
<trkpt lat="46.31888056" lon="7.52802663"><ele></ele><time>2014-5-28T3:31:56Z</time></trkpt>
<trkpt lat="46.31894259" lon="7.52791783"><ele></ele><time>2014-5-28T3:31:59Z</time></trkpt>
<trkpt lat="46.31897737" lon="7.52784868"><ele></ele><time>2014-5-28T3:32:2Z</time></trkpt>
<trkpt lat="46.31912188" lon="7.52763100"><ele></ele><time>2014-5-28T3:32:5Z</time></trkpt>
<trkpt lat="46.31914099" lon="7.52757903"><ele></ele><time>2014-5-28T3:32:8Z</time></trkpt>
<trkpt lat="46.31922363" lon="7.52731048"><ele></ele><time>2014-5-28T3:32:11Z</time></trkpt>
<trkpt lat="46.31928105" lon="7.52698367"><ele></ele><time>2014-5-28T3:32:14Z</time></trkpt>
<trkpt lat="46.31931332" lon="7.52691083"><ele></ele><time>2014-5-28T3:32:17Z</time></trkpt>
<trkpt lat="46.31940175" lon="7.52677085"><ele></ele><time>2014-5-28T3:32:20Z</time></trkpt>
<trkpt lat="46.31941038" lon="7.52676079"><ele></ele><time>2014-5-28T3:32:23Z</time></trkpt>
<trkpt lat="46.31962454" lon="7.52648519"><ele></ele><time>2014-5-28T3:32:26Z</time></trkpt>
<trkpt lat="46.31968078" lon="7.52640196"><ele></ele><time>2014-5-28T3:32:29Z</time></trkpt>
<trkpt lat="46.31979327" lon="7.52628369"><ele></ele><time>2014-5-28T3:32:32Z</time></trkpt>
<trkpt lat="46.31988128" lon="7.52617565"><ele></ele><time>2014-5-28T3:32:35Z</time></trkpt>
<trkpt lat="46.32005084" lon="7.52590885"><ele></ele><time>2014-5-28T3:32:38Z</time></trkpt>
<trkpt lat="46.32014028" lon="7.52582696"><ele></ele><time>2014-5-28T3:32:41Z</time></trkpt>
<trkpt lat="46.32027766" lon="7.52598144"><ele></ele><time>2014-5-28T3:32:44Z</time></trkpt>
<trkpt lat="46.32029576" lon="7.52603626"><ele></ele><time>2014-5-28T3:32:47Z</time></trkpt>
<trkpt lat="46.32034413" lon="7.52611798"><ele></ele><time>2014-5-28T3:32:50Z</time></trkpt>
<trkpt lat="46.32042032" lon="7.52619392"><ele></ele><time>2014-5-28T3:32:53Z</time></trkpt>
<trkpt lat="46.32046675" lon="7.52625058"><ele></ele><time>2014-5-28T3:32:56Z</time></trkpt>
<trkpt lat="46.32048829" lon="7.52627087"><ele></ele><time>2014-5-28T3:32:59Z</time></trkpt>
<trkpt lat="46.32054823" lon="7.52630046"><ele></ele><time>2014-5-28T3:33:2Z</time></trkpt>
<trkpt lat="46.32060455" lon="7.52630658"><ele></ele><time>2014-5-28T3:33:5Z</time></trkpt>
<trkpt lat="46.32082407" lon="7.52636123"><ele></ele><time>2014-5-28T3:33:8Z</time></trkpt>
<trkpt lat="46.32096455" lon="7.52650363"><ele></ele><time>2014-5-28T3:33:11Z</time></trkpt>
<trkpt lat="46.32112339" lon="7.52665266"><ele></ele><time>2014-5-28T3:33:14Z</time></trkpt>
<trkpt lat="46.32121752" lon="7.52691669"><ele></ele><time>2014-5-28T3:33:17Z</time></trkpt>
<trkpt lat="46.32126404" lon="7.52712809"><ele></ele><time>2014-5-28T3:33:20Z</time></trkpt>
<trkpt lat="46.32127083" lon="7.52722087"><ele></ele><time>2014-5-28T3:33:23Z</time></trkpt>
<trkpt lat="46.32134509" lon="7.52741693"><ele></ele><time>2014-5-28T3:33:26Z</time></trkpt>
<trkpt lat="46.32135062" lon="7.52751332"><ele></ele><time>2014-5-28T3:33:29Z</time></trkpt>
<trkpt lat="46.32134543" lon="7.52760242"><ele></ele><time>2014-5-28T3:33:32Z</time></trkpt>
<trkpt lat="46.32138373" lon="7.52773468"><ele></ele><time>2014-5-28T3:33:35Z</time></trkpt>
<trkpt lat="46.32146630" lon="7.52784155"><ele></ele><time>2014-5-28T3:33:38Z</time></trkpt>
<trkpt lat="46.32165095" lon="7.52790609"><ele></ele><time>2014-5-28T3:33:41Z</time></trkpt>
<trkpt lat="46.32176938" lon="7.52792437"><ele></ele><time>2014-5-28T3:33:44Z</time></trkpt>
<trkpt lat="46.32195354" lon="7.52796267"><ele></ele><time>2014-5-28T3:33:47Z</time></trkpt>
<trkpt lat="46.32210474" lon="7.52802755"><ele></ele><time>2014-5-28T3:33:50Z</time></trkpt>
<trkpt lat="46.32211908" lon="7.52803937"><ele></ele><time>2014-5-28T3:33:53Z</time></trkpt>
<trkpt lat="46.32222368" lon="7.52809368"><ele></ele><time>2014-5-28T3:33:56Z</time></trkpt>
<trkpt lat="46.32227708" lon="7.52804708"><ele></ele><time>2014-5-28T3:33:59Z</time></trkpt>
<trkpt lat="46.32238093" lon="7.52794893"><ele></ele><time>2014-5-28T3:34:2Z</time></trkpt>
<trkpt lat="46.32246056" lon="7.52790584"><ele></ele><time>2014-5-28T3:34:5Z</time></trkpt>
<trkpt lat="46.32262283" lon="7.52782119"><ele></ele><time>2014-5-28T3:34:8Z</time></trkpt>
<trkpt lat="46.32270179" lon="7.52775447"><ele></ele><time>2014-5-28T3:34:11Z</time></trkpt>
<trkpt lat="46.32276616" lon="7.52771448"><ele></ele><time>2014-5-28T3:34:14Z</time></trkpt>
<trkpt lat="46.32284939" lon="7.52760996"><ele></ele><time>2014-5-28T3:34:17Z</time></trkpt>
<trkpt lat="46.32289566" lon="7.52749840"><ele></ele><time>2014-5-28T3:34:20Z</time></trkpt>
<trkpt lat="46.32289843" lon="7.52748365"><ele></ele><time>2014-5-28T3:34:23Z</time></trkpt>
<trkpt lat="46.32299557" lon="7.52734375"><ele></ele><time>2014-5-28T3:34:26Z</time></trkpt>
<trkpt lat="46.32300848" lon="7.52734819"><ele></ele><time>2014-5-28T3:34:29Z</time></trkpt>
<trkpt lat="46.32308040" lon="7.52742967"><ele></ele><time>2014-5-28T3:34:32Z</time></trkpt>
<trkpt lat="46.32315156" lon="7.52742162"><ele></ele><time>2014-5-28T3:34:35Z</time></trkpt>
<trkpt lat="46.32322356" lon="7.52746688"><ele></ele><time>2014-5-28T3:34:38Z</time></trkpt>
<trkpt lat="46.32341668" lon="7.52761792"><ele></ele><time>2014-5-28T3:34:41Z</time></trkpt>
<trkpt lat="46.32356915" lon="7.52768758"><ele></ele><time>2014-5-28T3:34:44Z</time></trkpt>
<trkpt lat="46.32359982" lon="7.52767744"><ele></ele><time>2014-5-28T3:34:47Z</time></trkpt>
<trkpt lat="46.32372907" lon="7.52760845"><ele></ele><time>2014-5-28T3:34:50Z</time></trkpt>
<trkpt lat="46.32382438" lon="7.52762714"><ele></ele><time>2014-5-28T3:34:53Z</time></trkpt>
<trkpt lat="46.32384676" lon="7.52761289"><ele></ele><time>2014-5-28T3:34:56Z</time></trkpt>
<trkpt lat="46.32374567" lon="7.52778330"><ele></ele><time>2014-5-28T3:34:59Z</time></trkpt>
<trkpt lat="46.32369119" lon="7.52802872"><ele></ele><time>2014-5-28T3:35:2Z</time></trkpt>
<trkpt lat="46.32370502" lon="7.52811128"><ele></ele><time>2014-5-28T3:35:5Z</time></trkpt>
<trkpt lat="46.32372824" lon="7.52827255"><ele></ele><time>2014-5-28T3:35:8Z</time></trkpt>
<trkpt lat="46.32372539" lon="7.52835830"><ele></ele><time>2014-5-28T3:35:11Z</time></trkpt>
<trkpt lat="46.32377006" lon="7.52849207"><ele></ele><time>2014-5-28T3:35:14Z</time></trkpt>
<trkpt lat="46.32383142" lon="7.52857279"><ele></ele><time>2014-5-28T3:35:17Z</time></trkpt>
<trkpt lat="46.32388204" lon="7.52884436"><ele></ele><time>2014-5-28T3:35:20Z</time></trkpt>
<trkpt lat="46.32390325" lon="7.52890756"><ele></ele><time>2014-5-28T3:35:23Z</time></trkpt>
<trkpt lat="46.32392102" lon="7.52901108"><ele></ele><time>2014-5-28T3:35:26Z</time></trkpt>
<trkpt lat="46.32394164" lon="7.52904436"><ele></ele><time>2014-5-28T3:35:29Z</time></trkpt>
<trkpt lat="46.32404767" lon="7.52919942"><ele></ele><time>2014-5-28T3:35:32Z</time></trkpt>
<trkpt lat="46.32405915" lon="7.52926044"><ele></ele><time>2014-5-28T3:35:35Z</time></trkpt>
<trkpt lat="46.32407902" lon="7.52937385"><ele></ele><time>2014-5-28T3:35:38Z</time></trkpt>
<trkpt lat="46.32407575" lon="7.52948759"><ele></ele><time>2014-5-28T3:35:41Z</time></trkpt>
<trkpt lat="46.32406116" lon="7.52952866"><ele></ele><time>2014-5-28T3:35:44Z</time></trkpt>
<trkpt lat="46.32406175" lon="7.52958423"><ele></ele><time>2014-5-28T3:35:47Z</time></trkpt>
<trkpt lat="46.32406938" lon="7.52965137"><ele></ele><time>2014-5-28T3:35:50Z</time></trkpt>
<trkpt lat="46.32409712" lon="7.52972027"><ele></ele><time>2014-5-28T3:35:53Z</time></trkpt>
<trkpt lat="46.32412964" lon="7.52977618"><ele></ele><time>2014-5-28T3:35:56Z</time></trkpt>
<trkpt lat="46.32411716" lon="7.52994047"><ele></ele><time>2014-5-28T3:35:59Z</time></trkpt>
<trkpt lat="46.32419636" lon="7.53017575"><ele></ele><time>2014-5-28T3:36:2Z</time></trkpt>
<trkpt lat="46.32420885" lon="7.53024263"><ele></ele><time>2014-5-28T3:36:5Z</time></trkpt>
<trkpt lat="46.32421757" lon="7.53032528"><ele></ele><time>2014-5-28T3:36:8Z</time></trkpt>
<trkpt lat="46.32421707" lon="7.53038060"><ele></ele><time>2014-5-28T3:36:11Z</time></trkpt>
<trkpt lat="46.32424942" lon="7.53051035"><ele></ele><time>2014-5-28T3:36:14Z</time></trkpt>
<trkpt lat="46.32433576" lon="7.53056190"><ele></ele><time>2014-5-28T3:36:17Z</time></trkpt>
<trkpt lat="46.32443072" lon="7.53073390"><ele></ele><time>2014-5-28T3:36:20Z</time></trkpt>
<trkpt lat="46.32444103" lon="7.53081143"><ele></ele><time>2014-5-28T3:36:23Z</time></trkpt>
<trkpt lat="46.32441547" lon="7.53089810"><ele></ele><time>2014-5-28T3:36:26Z</time></trkpt>
<trkpt lat="46.32442234" lon="7.53095719"><ele></ele><time>2014-5-28T3:36:29Z</time></trkpt>
<trkpt lat="46.32441907" lon="7.53100312"><ele></ele><time>2014-5-28T3:36:32Z</time></trkpt>
<trkpt lat="46.32440415" lon="7.53109273"><ele></ele><time>2014-5-28T3:36:35Z</time></trkpt>
<trkpt lat="46.32440683" lon="7.53126112"><ele></ele><time>2014-5-28T3:36:38Z</time></trkpt>
<trkpt lat="46.32439535" lon="7.53128534"><ele></ele><time>2014-5-28T3:36:41Z</time></trkpt>
<trkpt lat="46.32438839" lon="7.53128618"><ele></ele><time>2014-5-28T3:36:44Z</time></trkpt>
<trkpt lat="46.32439275" lon="7.53127822"><ele></ele><time>2014-5-28T3:36:47Z</time></trkpt>
<trkpt lat="46.32437356" lon="7.53132029"><ele></ele><time>2014-5-28T3:36:50Z</time></trkpt>
<trkpt lat="46.32437197" lon="7.53133169"><ele></ele><time>2014-5-28T3:36:53Z</time></trkpt>
<trkpt lat="46.32437088" lon="7.53133077"><ele></ele><time>2014-5-28T3:36:56Z</time></trkpt>
<trkpt lat="46.32436979" lon="7.53132993"><ele></ele><time>2014-5-28T3:36:59Z</time></trkpt>
<trkpt lat="46.32437163" lon="7.53133270"><ele></ele><time>2014-5-28T3:37:2Z</time></trkpt>
<trkpt lat="46.32437155" lon="7.53133656"><ele></ele><time>2014-5-28T3:37:5Z</time></trkpt>
<trkpt lat="46.32441647" lon="7.53141618"><ele></ele><time>2014-5-28T3:37:8Z</time></trkpt>
<trkpt lat="46.32442427" lon="7.53142364"><ele></ele><time>2014-5-28T3:37:11Z</time></trkpt>
<trkpt lat="46.32455092" lon="7.53150654"><ele></ele><time>2014-5-28T3:37:14Z</time></trkpt>
<trkpt lat="46.32460582" lon="7.53153630"><ele></ele><time>2014-5-28T3:37:17Z</time></trkpt>
<trkpt lat="46.32467447" lon="7.53163135"><ele></ele><time>2014-5-28T3:37:20Z</time></trkpt>
<trkpt lat="46.32475896" lon="7.53180452"><ele></ele><time>2014-5-28T3:37:23Z</time></trkpt>
<trkpt lat="46.32471940" lon="7.53185137"><ele></ele><time>2014-5-28T3:37:26Z</time></trkpt>
<trkpt lat="46.32466785" lon="7.53198557"><ele></ele><time>2014-5-28T3:37:29Z</time></trkpt>
<trkpt lat="46.32464429" lon="7.53209746"><ele></ele><time>2014-5-28T3:37:32Z</time></trkpt>
<trkpt lat="46.32468805" lon="7.53227214"><ele></ele><time>2014-5-28T3:37:35Z</time></trkpt>
<trkpt lat="46.32484630" lon="7.53250860"><ele></ele><time>2014-5-28T3:37:38Z</time></trkpt>
<trkpt lat="46.32486323" lon="7.53273969"><ele></ele><time>2014-5-28T3:37:41Z</time></trkpt>
<trkpt lat="46.32485820" lon="7.53279383"><ele></ele><time>2014-5-28T3:37:44Z</time></trkpt>
<trkpt lat="46.32489307" lon="7.53292568"><ele></ele><time>2014-5-28T3:37:47Z</time></trkpt>
<trkpt lat="46.32495870" lon="7.53305627"><ele></ele><time>2014-5-28T3:37:50Z</time></trkpt>
<trkpt lat="46.32503707" lon="7.53325526"><ele></ele><time>2014-5-28T3:37:53Z</time></trkpt>
<trkpt lat="46.32506314" lon="7.53331795"><ele></ele><time>2014-5-28T3:37:56Z</time></trkpt>
<trkpt lat="46.32506766" lon="7.53343404"><ele></ele><time>2014-5-28T3:37:59Z</time></trkpt>
<trkpt lat="46.32491813" lon="7.53364493"><ele></ele><time>2014-5-28T3:38:2Z</time></trkpt>
<trkpt lat="46.32491075" lon="7.53372833"><ele></ele><time>2014-5-28T3:38:5Z</time></trkpt>
<trkpt lat="46.32490975" lon="7.53399043"><ele></ele><time>2014-5-28T3:38:8Z</time></trkpt>
<trkpt lat="46.32489047" lon="7.53406168"><ele></ele><time>2014-5-28T3:38:11Z</time></trkpt>
<trkpt lat="46.32488544" lon="7.53410786"><ele></ele><time>2014-5-28T3:38:14Z</time></trkpt>
<trkpt lat="46.32492593" lon="7.53425488"><ele></ele><time>2014-5-28T3:38:17Z</time></trkpt>
<trkpt lat="46.32493146" lon="7.53430475"><ele></ele><time>2014-5-28T3:38:20Z</time></trkpt>
<trkpt lat="46.32493406" lon="7.53434993"><ele></ele><time>2014-5-28T3:38:23Z</time></trkpt>
<trkpt lat="46.32485518" lon="7.53468722"><ele></ele><time>2014-5-28T3:38:26Z</time></trkpt>
<trkpt lat="46.32483004" lon="7.53495796"><ele></ele><time>2014-5-28T3:38:29Z</time></trkpt>
<trkpt lat="46.32485694" lon="7.53529399"><ele></ele><time>2014-5-28T3:38:32Z</time></trkpt>
<trkpt lat="46.32487832" lon="7.53534059"><ele></ele><time>2014-5-28T3:38:35Z</time></trkpt>
<trkpt lat="46.32488242" lon="7.53543212"><ele></ele><time>2014-5-28T3:38:38Z</time></trkpt>
<trkpt lat="46.32486658" lon="7.53559012"><ele></ele><time>2014-5-28T3:38:41Z</time></trkpt>
<trkpt lat="46.32485426" lon="7.53582104"><ele></ele><time>2014-5-28T3:38:44Z</time></trkpt>
<trkpt lat="46.32480556" lon="7.53595985"><ele></ele><time>2014-5-28T3:38:47Z</time></trkpt>
<trkpt lat="46.32476776" lon="7.53606169"><ele></ele><time>2014-5-28T3:38:50Z</time></trkpt>
<trkpt lat="46.32477086" lon="7.53632379"><ele></ele><time>2014-5-28T3:38:53Z</time></trkpt>
<trkpt lat="46.32478838" lon="7.53643569"><ele></ele><time>2014-5-28T3:38:56Z</time></trkpt>
<trkpt lat="46.32481537" lon="7.53655454"><ele></ele><time>2014-5-28T3:38:59Z</time></trkpt>
<trkpt lat="46.32481730" lon="7.53668253"><ele></ele><time>2014-5-28T3:39:2Z</time></trkpt>
<trkpt lat="46.32473222" lon="7.53683609"><ele></ele><time>2014-5-28T3:39:5Z</time></trkpt>
<trkpt lat="46.32472744" lon="7.53687062"><ele></ele><time>2014-5-28T3:39:8Z</time></trkpt>
<trkpt lat="46.32471303" lon="7.53712493"><ele></ele><time>2014-5-28T3:39:11Z</time></trkpt>
<trkpt lat="46.32471059" lon="7.53724328"><ele></ele><time>2014-5-28T3:39:14Z</time></trkpt>
<trkpt lat="46.32473348" lon="7.53739784"><ele></ele><time>2014-5-28T3:39:17Z</time></trkpt>
<trkpt lat="46.32473968" lon="7.53745845"><ele></ele><time>2014-5-28T3:39:20Z</time></trkpt>
<trkpt lat="46.32469459" lon="7.53761728"><ele></ele><time>2014-5-28T3:39:23Z</time></trkpt>
<trkpt lat="46.32462510" lon="7.53781225"><ele></ele><time>2014-5-28T3:39:26Z</time></trkpt>
<trkpt lat="46.32458939" lon="7.53805624"><ele></ele><time>2014-5-28T3:39:29Z</time></trkpt>
<trkpt lat="46.32458562" lon="7.53819538"><ele></ele><time>2014-5-28T3:39:32Z</time></trkpt>
<trkpt lat="46.32453768" lon="7.53832388"><ele></ele><time>2014-5-28T3:39:35Z</time></trkpt>
<trkpt lat="46.32449149" lon="7.53850912"><ele></ele><time>2014-5-28T3:39:38Z</time></trkpt>
<trkpt lat="46.32452083" lon="7.53858933"><ele></ele><time>2014-5-28T3:39:41Z</time></trkpt>
<trkpt lat="46.32450557" lon="7.53872495"><ele></ele><time>2014-5-28T3:39:44Z</time></trkpt>
<trkpt lat="46.32450943" lon="7.53883610"><ele></ele><time>2014-5-28T3:39:47Z</time></trkpt>
<trkpt lat="46.32452846" lon="7.53891774"><ele></ele><time>2014-5-28T3:39:50Z</time></trkpt>
<trkpt lat="46.32454262" lon="7.53895747"><ele></ele><time>2014-5-28T3:39:53Z</time></trkpt>
<trkpt lat="46.32458227" lon="7.53901798"><ele></ele><time>2014-5-28T3:39:56Z</time></trkpt>
<trkpt lat="46.32457623" lon="7.53909258"><ele></ele><time>2014-5-28T3:39:59Z</time></trkpt>
<trkpt lat="46.32461688" lon="7.53919467"><ele></ele><time>2014-5-28T3:40:2Z</time></trkpt>
<trkpt lat="46.32462719" lon="7.53929350"><ele></ele><time>2014-5-28T3:40:5Z</time></trkpt>
<trkpt lat="46.32466625" lon="7.53956256"><ele></ele><time>2014-5-28T3:40:8Z</time></trkpt>
<trkpt lat="46.32476952" lon="7.53989984"><ele></ele><time>2014-5-28T3:40:11Z</time></trkpt>
<trkpt lat="46.32479416" lon="7.53999347"><ele></ele><time>2014-5-28T3:40:14Z</time></trkpt>
<trkpt lat="46.32487924" lon="7.54026487"><ele></ele><time>2014-5-28T3:40:17Z</time></trkpt>
<trkpt lat="46.32493230" lon="7.54053569"><ele></ele><time>2014-5-28T3:40:20Z</time></trkpt>
<trkpt lat="46.32494059" lon="7.54055589"><ele></ele><time>2014-5-28T3:40:23Z</time></trkpt>
<trkpt lat="46.32498049" lon="7.54059437"><ele></ele><time>2014-5-28T3:40:26Z</time></trkpt>
<trkpt lat="46.32506372" lon="7.54076620"><ele></ele><time>2014-5-28T3:40:29Z</time></trkpt>
<trkpt lat="46.32507915" lon="7.54095638"><ele></ele><time>2014-5-28T3:40:32Z</time></trkpt>
<trkpt lat="46.32515232" lon="7.54118663"><ele></ele><time>2014-5-28T3:40:35Z</time></trkpt>
<trkpt lat="46.32528727" lon="7.54145293"><ele></ele><time>2014-5-28T3:40:38Z</time></trkpt>
<trkpt lat="46.32533848" lon="7.54155267"><ele></ele><time>2014-5-28T3:40:41Z</time></trkpt>
<trkpt lat="46.32531879" lon="7.54166683"><ele></ele><time>2014-5-28T3:40:44Z</time></trkpt>
<trkpt lat="46.32532256" lon="7.54181008"><ele></ele><time>2014-5-28T3:40:47Z</time></trkpt>
<trkpt lat="46.32546924" lon="7.54194117"><ele></ele><time>2014-5-28T3:40:50Z</time></trkpt>
<trkpt lat="46.32545742" lon="7.54201032"><ele></ele><time>2014-5-28T3:40:53Z</time></trkpt>
<trkpt lat="46.32550042" lon="7.54239103"><ele></ele><time>2014-5-28T3:40:56Z</time></trkpt>
<trkpt lat="46.32555859" lon="7.54245414"><ele></ele><time>2014-5-28T3:40:59Z</time></trkpt>
<trkpt lat="46.32560017" lon="7.54253629"><ele></ele><time>2014-5-28T3:41:2Z</time></trkpt>
<trkpt lat="46.32564249" lon="7.54257124"><ele></ele><time>2014-5-28T3:41:5Z</time></trkpt>
<trkpt lat="46.32561819" lon="7.54252438"><ele></ele><time>2014-5-28T3:41:8Z</time></trkpt>
<trkpt lat="46.32562003" lon="7.54252464"><ele></ele><time>2014-5-28T3:41:11Z</time></trkpt>
<trkpt lat="46.32564845" lon="7.54262296"><ele></ele><time>2014-5-28T3:41:14Z</time></trkpt>
<trkpt lat="46.32562766" lon="7.54278540"><ele></ele><time>2014-5-28T3:41:17Z</time></trkpt>
<trkpt lat="46.32558139" lon="7.54289688"><ele></ele><time>2014-5-28T3:41:20Z</time></trkpt>
<trkpt lat="46.32565943" lon="7.54320826"><ele></ele><time>2014-5-28T3:41:23Z</time></trkpt>
<trkpt lat="46.32575029" lon="7.54347280"><ele></ele><time>2014-5-28T3:41:26Z</time></trkpt>
<trkpt lat="46.32584626" lon="7.54365192"><ele></ele><time>2014-5-28T3:41:29Z</time></trkpt>
<trkpt lat="46.32585246" lon="7.54368955"><ele></ele><time>2014-5-28T3:41:32Z</time></trkpt>
<trkpt lat="46.32582153" lon="7.54372350"><ele></ele><time>2014-5-28T3:41:35Z</time></trkpt>
<trkpt lat="46.32578759" lon="7.54382123"><ele></ele><time>2014-5-28T3:41:38Z</time></trkpt>
<trkpt lat="46.32582933" lon="7.54400597"><ele></ele><time>2014-5-28T3:41:41Z</time></trkpt>
<trkpt lat="46.32582245" lon="7.54407772"><ele></ele><time>2014-5-28T3:41:44Z</time></trkpt>
<trkpt lat="46.32586436" lon="7.54427738"><ele></ele><time>2014-5-28T3:41:47Z</time></trkpt>
<trkpt lat="46.32592002" lon="7.54444770"><ele></ele><time>2014-5-28T3:41:50Z</time></trkpt>
<trkpt lat="46.32595355" lon="7.54453084"><ele></ele><time>2014-5-28T3:41:53Z</time></trkpt>
<trkpt lat="46.32603016" lon="7.54487107"><ele></ele><time>2014-5-28T3:41:56Z</time></trkpt>
<trkpt lat="46.32608254" lon="7.54497576"><ele></ele><time>2014-5-28T3:41:59Z</time></trkpt>
<trkpt lat="46.32630534" lon="7.54520626"><ele></ele><time>2014-5-28T3:42:2Z</time></trkpt>
<trkpt lat="46.32633174" lon="7.54522034"><ele></ele><time>2014-5-28T3:42:5Z</time></trkpt>
<trkpt lat="46.32655302" lon="7.54536878"><ele></ele><time>2014-5-28T3:42:8Z</time></trkpt>
<trkpt lat="46.32669786" lon="7.54549359"><ele></ele><time>2014-5-28T3:42:11Z</time></trkpt>
<trkpt lat="46.32691872" lon="7.54561387"><ele></ele><time>2014-5-28T3:42:14Z</time></trkpt>
<trkpt lat="46.32703607" lon="7.54569434"><ele></ele><time>2014-5-28T3:42:17Z</time></trkpt>
<trkpt lat="46.32713598" lon="7.54585292"><ele></ele><time>2014-5-28T3:42:20Z</time></trkpt>
<trkpt lat="46.32729524" lon="7.54606314"><ele></ele><time>2014-5-28T3:42:23Z</time></trkpt>
<trkpt lat="46.32737403" lon="7.54612852"><ele></ele><time>2014-5-28T3:42:26Z</time></trkpt>
<trkpt lat="46.32764895" lon="7.54629616"><ele></ele><time>2014-5-28T3:42:29Z</time></trkpt>
<trkpt lat="46.32773680" lon="7.54635265"><ele></ele><time>2014-5-28T3:42:32Z</time></trkpt>
<trkpt lat="46.32789480" lon="7.54653429"><ele></ele><time>2014-5-28T3:42:35Z</time></trkpt>
<trkpt lat="46.32802212" lon="7.54662246"><ele></ele><time>2014-5-28T3:42:38Z</time></trkpt>
<trkpt lat="46.32813234" lon="7.54670335"><ele></ele><time>2014-5-28T3:42:41Z</time></trkpt>
<trkpt lat="46.32826402" lon="7.54683226"><ele></ele><time>2014-5-28T3:42:44Z</time></trkpt>
<trkpt lat="46.32850852" lon="7.54706704"><ele></ele><time>2014-5-28T3:42:47Z</time></trkpt>
<trkpt lat="46.32863676" lon="7.54709864"><ele></ele><time>2014-5-28T3:42:50Z</time></trkpt>
<trkpt lat="46.32886877" lon="7.54720576"><ele></ele><time>2014-5-28T3:42:53Z</time></trkpt>
<trkpt lat="46.32888193" lon="7.54722026"><ele></ele><time>2014-5-28T3:42:56Z</time></trkpt>
<trkpt lat="46.32905477" lon="7.54746669"><ele></ele><time>2014-5-28T3:42:59Z</time></trkpt>
<trkpt lat="46.32914647" lon="7.54755235"><ele></ele><time>2014-5-28T3:43:2Z</time></trkpt>
<trkpt lat="46.32915409" lon="7.54750449"><ele></ele><time>2014-5-28T3:43:5Z</time></trkpt>
<trkpt lat="46.32919366" lon="7.54755369"><ele></ele><time>2014-5-28T3:43:8Z</time></trkpt>
<trkpt lat="46.32922752" lon="7.54760725"><ele></ele><time>2014-5-28T3:43:11Z</time></trkpt>
<trkpt lat="46.32938895" lon="7.54784807"><ele></ele><time>2014-5-28T3:43:14Z</time></trkpt>
<trkpt lat="46.32936783" lon="7.54818485"><ele></ele><time>2014-5-28T3:43:17Z</time></trkpt>
<trkpt lat="46.32932534" lon="7.54828753"><ele></ele><time>2014-5-28T3:43:20Z</time></trkpt>
<trkpt lat="46.32921176" lon="7.54865927"><ele></ele><time>2014-5-28T3:43:23Z</time></trkpt>
<trkpt lat="46.32917647" lon="7.54902564"><ele></ele><time>2014-5-28T3:43:26Z</time></trkpt>
<trkpt lat="46.32917798" lon="7.54912354"><ele></ele><time>2014-5-28T3:43:29Z</time></trkpt>
<trkpt lat="46.32925468" lon="7.54922169"><ele></ele><time>2014-5-28T3:43:32Z</time></trkpt>
<trkpt lat="46.32943489" lon="7.54935388"><ele></ele><time>2014-5-28T3:43:35Z</time></trkpt>
<trkpt lat="46.32951753" lon="7.54943895"><ele></ele><time>2014-5-28T3:43:38Z</time></trkpt>
<trkpt lat="46.32966287" lon="7.54952059"><ele></ele><time>2014-5-28T3:43:41Z</time></trkpt>
<trkpt lat="46.32973052" lon="7.54954599"><ele></ele><time>2014-5-28T3:43:44Z</time></trkpt>
<trkpt lat="46.32988734" lon="7.54958438"><ele></ele><time>2014-5-28T3:43:47Z</time></trkpt>
<trkpt lat="46.32997720" lon="7.54957968"><ele></ele><time>2014-5-28T3:43:50Z</time></trkpt>
<trkpt lat="46.33003855" lon="7.54955454"><ele></ele><time>2014-5-28T3:43:53Z</time></trkpt>
<trkpt lat="46.33023888" lon="7.54967683"><ele></ele><time>2014-5-28T3:43:56Z</time></trkpt>
<trkpt lat="46.33030937" lon="7.54974808"><ele></ele><time>2014-5-28T3:43:59Z</time></trkpt>
<trkpt lat="46.33047374" lon="7.54990616"><ele></ele><time>2014-5-28T3:44:2Z</time></trkpt>
<trkpt lat="46.33042077" lon="7.54999358"><ele></ele><time>2014-5-28T3:44:5Z</time></trkpt>
<trkpt lat="46.33036016" lon="7.55005335"><ele></ele><time>2014-5-28T3:44:8Z</time></trkpt>
<trkpt lat="46.33027459" lon="7.55012845"><ele></ele><time>2014-5-28T3:44:11Z</time></trkpt>
<trkpt lat="46.33021734" lon="7.55025024"><ele></ele><time>2014-5-28T3:44:14Z</time></trkpt>
<trkpt lat="46.33019806" lon="7.55036213"><ele></ele><time>2014-5-28T3:44:17Z</time></trkpt>
<trkpt lat="46.33016277" lon="7.55062080"><ele></ele><time>2014-5-28T3:44:20Z</time></trkpt>
<trkpt lat="46.33001575" lon="7.55084963"><ele></ele><time>2014-5-28T3:44:23Z</time></trkpt>
<trkpt lat="46.32996404" lon="7.55090444"><ele></ele><time>2014-5-28T3:44:26Z</time></trkpt>
<trkpt lat="46.32982657" lon="7.55112648"><ele></ele><time>2014-5-28T3:44:29Z</time></trkpt>
<trkpt lat="46.32977477" lon="7.55120502"><ele></ele><time>2014-5-28T3:44:32Z</time></trkpt>
<trkpt lat="46.32957906" lon="7.55126872"><ele></ele><time>2014-5-28T3:44:35Z</time></trkpt>
<trkpt lat="46.32939826" lon="7.55120887"><ele></ele><time>2014-5-28T3:44:38Z</time></trkpt>
<trkpt lat="46.32922836" lon="7.55113889"><ele></ele><time>2014-5-28T3:44:41Z</time></trkpt>
<trkpt lat="46.32910263" lon="7.55105674"><ele></ele><time>2014-5-28T3:44:44Z</time></trkpt>
<trkpt lat="46.32901755" lon="7.55098240"><ele></ele><time>2014-5-28T3:44:47Z</time></trkpt>
<trkpt lat="46.32898453" lon="7.55095867"><ele></ele><time>2014-5-28T3:44:50Z</time></trkpt>
<trkpt lat="46.32889015" lon="7.55089732"><ele></ele><time>2014-5-28T3:44:53Z</time></trkpt>
<trkpt lat="46.32877875" lon="7.55079833"><ele></ele><time>2014-5-28T3:44:56Z</time></trkpt>
<trkpt lat="46.32864003" lon="7.55071560"><ele></ele><time>2014-5-28T3:44:59Z</time></trkpt>
<trkpt lat="46.32848857" lon="7.55060923"><ele></ele><time>2014-5-28T3:45:2Z</time></trkpt>
<trkpt lat="46.32843702" lon="7.55059306"><ele></ele><time>2014-5-28T3:45:5Z</time></trkpt>
<trkpt lat="46.32840626" lon="7.55058417"><ele></ele><time>2014-5-28T3:45:8Z</time></trkpt>
<trkpt lat="46.32837868" lon="7.55056866"><ele></ele><time>2014-5-28T3:45:11Z</time></trkpt>
<trkpt lat="46.32828648" lon="7.55060915"><ele></ele><time>2014-5-28T3:45:14Z</time></trkpt>
<trkpt lat="46.32815639" lon="7.55064033"><ele></ele><time>2014-5-28T3:45:17Z</time></trkpt>
<trkpt lat="46.32812119" lon="7.55064880"><ele></ele><time>2014-5-28T3:45:20Z</time></trkpt>
<trkpt lat="46.32806017" lon="7.55070806"><ele></ele><time>2014-5-28T3:45:23Z</time></trkpt>
<trkpt lat="46.32795322" lon="7.55081266"><ele></ele><time>2014-5-28T3:45:26Z</time></trkpt>
<trkpt lat="46.32782782" lon="7.55099757"><ele></ele><time>2014-5-28T3:45:29Z</time></trkpt>
<trkpt lat="46.32762674" lon="7.55125975"><ele></ele><time>2014-5-28T3:45:32Z</time></trkpt>
<trkpt lat="46.32761543" lon="7.55128456"><ele></ele><time>2014-5-28T3:45:35Z</time></trkpt>
<trkpt lat="46.32748249" lon="7.55157332"><ele></ele><time>2014-5-28T3:45:38Z</time></trkpt>
<trkpt lat="46.32735173" lon="7.55176258"><ele></ele><time>2014-5-28T3:45:41Z</time></trkpt>
<trkpt lat="46.32734503" lon="7.55177792"><ele></ele><time>2014-5-28T3:45:44Z</time></trkpt>
<trkpt lat="46.32720572" lon="7.55210842"><ele></ele><time>2014-5-28T3:45:47Z</time></trkpt>
<trkpt lat="46.32718652" lon="7.55222275"><ele></ele><time>2014-5-28T3:45:50Z</time></trkpt>
<trkpt lat="46.32711888" lon="7.55220288"><ele></ele><time>2014-5-28T3:45:53Z</time></trkpt>
<trkpt lat="46.32710095" lon="7.55214673"><ele></ele><time>2014-5-28T3:45:56Z</time></trkpt>
<trkpt lat="46.32708913" lon="7.55212183"><ele></ele><time>2014-5-28T3:45:59Z</time></trkpt>
<trkpt lat="46.32706985" lon="7.55210649"><ele></ele><time>2014-5-28T3:46:2Z</time></trkpt>
<trkpt lat="46.32696097" lon="7.55207615"><ele></ele><time>2014-5-28T3:46:5Z</time></trkpt>
<trkpt lat="46.32695049" lon="7.55207020"><ele></ele><time>2014-5-28T3:46:8Z</time></trkpt>
<trkpt lat="46.32692208" lon="7.55204279"><ele></ele><time>2014-5-28T3:46:11Z</time></trkpt>
<trkpt lat="46.32683147" lon="7.55201287"><ele></ele><time>2014-5-28T3:46:14Z</time></trkpt>
<trkpt lat="46.32678470" lon="7.55196542"><ele></ele><time>2014-5-28T3:46:17Z</time></trkpt>
<trkpt lat="46.32673717" lon="7.55193500"><ele></ele><time>2014-5-28T3:46:20Z</time></trkpt>
<trkpt lat="46.32670012" lon="7.55190306"><ele></ele><time>2014-5-28T3:46:23Z</time></trkpt>
<trkpt lat="46.32661002" lon="7.55183014"><ele></ele><time>2014-5-28T3:46:26Z</time></trkpt>
<trkpt lat="46.32655403" lon="7.55180550"><ele></ele><time>2014-5-28T3:46:29Z</time></trkpt>
<trkpt lat="46.32654238" lon="7.55180290"><ele></ele><time>2014-5-28T3:46:32Z</time></trkpt>
<trkpt lat="46.32651480" lon="7.55181044"><ele></ele><time>2014-5-28T3:46:35Z</time></trkpt>
<trkpt lat="46.32649519" lon="7.55182503"><ele></ele><time>2014-5-28T3:46:38Z</time></trkpt>
<trkpt lat="46.32644808" lon="7.55186384"><ele></ele><time>2014-5-28T3:46:41Z</time></trkpt>
<trkpt lat="46.32641849" lon="7.55186954"><ele></ele><time>2014-5-28T3:46:44Z</time></trkpt>
<trkpt lat="46.32637030" lon="7.55185420"><ele></ele><time>2014-5-28T3:46:47Z</time></trkpt>
<trkpt lat="46.32628103" lon="7.55184665"><ele></ele><time>2014-5-28T3:46:50Z</time></trkpt>
<trkpt lat="46.32614365" lon="7.55177977"><ele></ele><time>2014-5-28T3:46:53Z</time></trkpt>
<trkpt lat="46.32612429" lon="7.55174783"><ele></ele><time>2014-5-28T3:46:56Z</time></trkpt>
<trkpt lat="46.32606964" lon="7.55164649"><ele></ele><time>2014-5-28T3:46:59Z</time></trkpt>
<trkpt lat="46.32605933" lon="7.55163132"><ele></ele><time>2014-5-28T3:47:2Z</time></trkpt>
<trkpt lat="46.32605304" lon="7.55161498"><ele></ele><time>2014-5-28T3:47:5Z</time></trkpt>
<trkpt lat="46.32603058" lon="7.55153225"><ele></ele><time>2014-5-28T3:47:8Z</time></trkpt>
<trkpt lat="46.32598339" lon="7.55140912"><ele></ele><time>2014-5-28T3:47:11Z</time></trkpt>
<trkpt lat="46.32596394" lon="7.55134055"><ele></ele><time>2014-5-28T3:47:14Z</time></trkpt>
<trkpt lat="46.32591046" lon="7.55126277"><ele></ele><time>2014-5-28T3:47:17Z</time></trkpt>
<trkpt lat="46.32587920" lon="7.55124693"><ele></ele><time>2014-5-28T3:47:20Z</time></trkpt>
<trkpt lat="46.32585506" lon="7.55119739"><ele></ele><time>2014-5-28T3:47:23Z</time></trkpt>
<trkpt lat="46.32574643" lon="7.55109664"><ele></ele><time>2014-5-28T3:47:26Z</time></trkpt>
<trkpt lat="46.32563923" lon="7.55106999"><ele></ele><time>2014-5-28T3:47:29Z</time></trkpt>
<trkpt lat="46.32559899" lon="7.55105892"><ele></ele><time>2014-5-28T3:47:32Z</time></trkpt>
<trkpt lat="46.32551719" lon="7.55106554"><ele></ele><time>2014-5-28T3:47:35Z</time></trkpt>
<trkpt lat="46.32545139" lon="7.55108558"><ele></ele><time>2014-5-28T3:47:38Z</time></trkpt>
<trkpt lat="46.32533454" lon="7.55109278"><ele></ele><time>2014-5-28T3:47:41Z</time></trkpt>
<trkpt lat="46.32520856" lon="7.55109245"><ele></ele><time>2014-5-28T3:47:44Z</time></trkpt>
<trkpt lat="46.32517537" lon="7.55108449"><ele></ele><time>2014-5-28T3:47:47Z</time></trkpt>
<trkpt lat="46.32515936" lon="7.55108055"><ele></ele><time>2014-5-28T3:47:50Z</time></trkpt>
<trkpt lat="46.32499122" lon="7.55102816"><ele></ele><time>2014-5-28T3:47:53Z</time></trkpt>
<trkpt lat="46.32492609" lon="7.55100042"><ele></ele><time>2014-5-28T3:47:56Z</time></trkpt>
<trkpt lat="46.32492014" lon="7.55099296"><ele></ele><time>2014-5-28T3:47:59Z</time></trkpt>
<trkpt lat="46.32486365" lon="7.55095566"><ele></ele><time>2014-5-28T3:48:2Z</time></trkpt>
<trkpt lat="46.32477966" lon="7.55090729"><ele></ele><time>2014-5-28T3:48:5Z</time></trkpt>
<trkpt lat="46.32470523" lon="7.55091526"><ele></ele><time>2014-5-28T3:48:8Z</time></trkpt>
<trkpt lat="46.32472459" lon="7.55085868"><ele></ele><time>2014-5-28T3:48:11Z</time></trkpt>
<trkpt lat="46.32473675" lon="7.55083747"><ele></ele><time>2014-5-28T3:48:14Z</time></trkpt>
<trkpt lat="46.32475929" lon="7.55079799"><ele></ele><time>2014-5-28T3:48:17Z</time></trkpt>
<trkpt lat="46.32476860" lon="7.55085885"><ele></ele><time>2014-5-28T3:48:20Z</time></trkpt>
<trkpt lat="46.32477740" lon="7.55078576"><ele></ele><time>2014-5-28T3:48:23Z</time></trkpt>
<trkpt lat="46.32491662" lon="7.55063228"><ele></ele><time>2014-5-28T3:48:26Z</time></trkpt>
<trkpt lat="46.32500547" lon="7.55054846"><ele></ele><time>2014-5-28T3:48:29Z</time></trkpt>
<trkpt lat="46.32511745" lon="7.55045509"><ele></ele><time>2014-5-28T3:48:32Z</time></trkpt>
<trkpt lat="46.32522005" lon="7.55036222"><ele></ele><time>2014-5-28T3:48:35Z</time></trkpt>
<trkpt lat="46.32535416" lon="7.55032735"><ele></ele><time>2014-5-28T3:48:38Z</time></trkpt>
<trkpt lat="46.32552808" lon="7.55024177"><ele></ele><time>2014-5-28T3:48:41Z</time></trkpt>
<trkpt lat="46.32557418" lon="7.55017136"><ele></ele><time>2014-5-28T3:48:44Z</time></trkpt>
<trkpt lat="46.32547159" lon="7.54997372"><ele></ele><time>2014-5-28T3:48:47Z</time></trkpt>
<trkpt lat="46.32529456" lon="7.54975419"><ele></ele><time>2014-5-28T3:48:50Z</time></trkpt>
<trkpt lat="46.32520923" lon="7.54968622"><ele></ele><time>2014-5-28T3:48:53Z</time></trkpt>
<trkpt lat="46.32508937" lon="7.54966845"><ele></ele><time>2014-5-28T3:48:56Z</time></trkpt>
<trkpt lat="46.32478385" lon="7.54978747"><ele></ele><time>2014-5-28T3:48:59Z</time></trkpt>
<trkpt lat="46.32449375" lon="7.54988747"><ele></ele><time>2014-5-28T3:49:2Z</time></trkpt>
<trkpt lat="46.32422185" lon="7.55007438"><ele></ele><time>2014-5-28T3:49:5Z</time></trkpt>
<trkpt lat="46.32413434" lon="7.55011462"><ele></ele><time>2014-5-28T3:49:8Z</time></trkpt>
<trkpt lat="46.32408304" lon="7.55009048"><ele></ele><time>2014-5-28T3:49:11Z</time></trkpt>
<trkpt lat="46.32388766" lon="7.54980943"><ele></ele><time>2014-5-28T3:49:14Z</time></trkpt>
<trkpt lat="46.32384500" lon="7.54941280"><ele></ele><time>2014-5-28T3:49:17Z</time></trkpt>
<trkpt lat="46.32367015" lon="7.54918942"><ele></ele><time>2014-5-28T3:49:20Z</time></trkpt>
<trkpt lat="46.32350586" lon="7.54887938"><ele></ele><time>2014-5-28T3:49:23Z</time></trkpt>
<trkpt lat="46.32346488" lon="7.54875943"><ele></ele><time>2014-5-28T3:49:26Z</time></trkpt>
<trkpt lat="46.32348357" lon="7.54845676"><ele></ele><time>2014-5-28T3:49:29Z</time></trkpt>
<trkpt lat="46.32351877" lon="7.54829365"><ele></ele><time>2014-5-28T3:49:32Z</time></trkpt>
<trkpt lat="46.32361676" lon="7.54810564"><ele></ele><time>2014-5-28T3:49:35Z</time></trkpt>
<trkpt lat="46.32364836" lon="7.54799408"><ele></ele><time>2014-5-28T3:49:38Z</time></trkpt>
<trkpt lat="46.32366998" lon="7.54787958"><ele></ele><time>2014-5-28T3:49:41Z</time></trkpt>
<trkpt lat="46.32361164" lon="7.54773969"><ele></ele><time>2014-5-28T3:49:44Z</time></trkpt>
<trkpt lat="46.32356764" lon="7.54770507"><ele></ele><time>2014-5-28T3:49:47Z</time></trkpt>
<trkpt lat="46.32334879" lon="7.54764036"><ele></ele><time>2014-5-28T3:49:50Z</time></trkpt>
<trkpt lat="46.32331727" lon="7.54765729"><ele></ele><time>2014-5-28T3:49:53Z</time></trkpt>
<trkpt lat="46.32307143" lon="7.54769325"><ele></ele><time>2014-5-28T3:49:56Z</time></trkpt>
<trkpt lat="46.32305047" lon="7.54770465"><ele></ele><time>2014-5-28T3:49:59Z</time></trkpt>
<trkpt lat="46.32293589" lon="7.54778512"><ele></ele><time>2014-5-28T3:50:2Z</time></trkpt>
<trkpt lat="46.32288720" lon="7.54781647"><ele></ele><time>2014-5-28T3:50:5Z</time></trkpt>
<trkpt lat="46.32252409" lon="7.54806248"><ele></ele><time>2014-5-28T3:50:8Z</time></trkpt>
<trkpt lat="46.32225637" lon="7.54796349"><ele></ele><time>2014-5-28T3:50:11Z</time></trkpt>
<trkpt lat="46.32209779" lon="7.54791395"><ele></ele><time>2014-5-28T3:50:14Z</time></trkpt>
<trkpt lat="46.32179059" lon="7.54783482"><ele></ele><time>2014-5-28T3:50:17Z</time></trkpt>
<trkpt lat="46.32170719" lon="7.54776676"><ele></ele><time>2014-5-28T3:50:20Z</time></trkpt>
<trkpt lat="46.32159253" lon="7.54767775"><ele></ele><time>2014-5-28T3:50:23Z</time></trkpt>
<trkpt lat="46.32150628" lon="7.54752905"><ele></ele><time>2014-5-28T3:50:26Z</time></trkpt>
<trkpt lat="46.32147082" lon="7.54723652"><ele></ele><time>2014-5-28T3:50:29Z</time></trkpt>
<trkpt lat="46.32139689" lon="7.54681726"><ele></ele><time>2014-5-28T3:50:32Z</time></trkpt>
<trkpt lat="46.32126722" lon="7.54647318"><ele></ele><time>2014-5-28T3:50:35Z</time></trkpt>
<trkpt lat="46.32107243" lon="7.54618770"><ele></ele><time>2014-5-28T3:50:38Z</time></trkpt>
<trkpt lat="46.32090152" lon="7.54599189"><ele></ele><time>2014-5-28T3:50:41Z</time></trkpt>
<trkpt lat="46.32085274" lon="7.54595635"><ele></ele><time>2014-5-28T3:50:44Z</time></trkpt>
<trkpt lat="46.32061813" lon="7.54583113"><ele></ele><time>2014-5-28T3:50:47Z</time></trkpt>
<trkpt lat="46.32048352" lon="7.54571479"><ele></ele><time>2014-5-28T3:50:50Z</time></trkpt>
<trkpt lat="46.32044245" lon="7.54536820"><ele></ele><time>2014-5-28T3:50:53Z</time></trkpt>
<trkpt lat="46.32049123" lon="7.54500568"><ele></ele><time>2014-5-28T3:50:56Z</time></trkpt>
<trkpt lat="46.32051713" lon="7.54487098"><ele></ele><time>2014-5-28T3:50:59Z</time></trkpt>
<trkpt lat="46.32054135" lon="7.54488012"><ele></ele><time>2014-5-28T3:51:2Z</time></trkpt>
<trkpt lat="46.32048109" lon="7.54489889"><ele></ele><time>2014-5-28T3:51:5Z</time></trkpt>
<trkpt lat="46.32045753" lon="7.54489529"><ele></ele><time>2014-5-28T3:51:8Z</time></trkpt>
<trkpt lat="46.32048628" lon="7.54484022"><ele></ele><time>2014-5-28T3:51:11Z</time></trkpt>
<trkpt lat="46.32046809" lon="7.54477199"><ele></ele><time>2014-5-28T3:51:14Z</time></trkpt>
<trkpt lat="46.32026307" lon="7.54441308"><ele></ele><time>2014-5-28T3:51:17Z</time></trkpt>
<trkpt lat="46.32025167" lon="7.54418283"><ele></ele><time>2014-5-28T3:51:20Z</time></trkpt>
<trkpt lat="46.32029199" lon="7.54407068"><ele></ele><time>2014-5-28T3:51:23Z</time></trkpt>
<trkpt lat="46.32042199" lon="7.54395777"><ele></ele><time>2014-5-28T3:51:26Z</time></trkpt>
<trkpt lat="46.32065048" lon="7.54382249"><ele></ele><time>2014-5-28T3:51:29Z</time></trkpt>
<trkpt lat="46.32076649" lon="7.54373180"><ele></ele><time>2014-5-28T3:51:32Z</time></trkpt>
<trkpt lat="46.32084184" lon="7.54363130"><ele></ele><time>2014-5-28T3:51:35Z</time></trkpt>
<trkpt lat="46.32088325" lon="7.54343919"><ele></ele><time>2014-5-28T3:51:38Z</time></trkpt>
<trkpt lat="46.32082382" lon="7.54324263"><ele></ele><time>2014-5-28T3:51:41Z</time></trkpt>
<trkpt lat="46.32081527" lon="7.54323198"><ele></ele><time>2014-5-28T3:51:44Z</time></trkpt>
<trkpt lat="46.32077009" lon="7.54315604"><ele></ele><time>2014-5-28T3:51:47Z</time></trkpt>
<trkpt lat="46.32066926" lon="7.54292655"><ele></ele><time>2014-5-28T3:51:50Z</time></trkpt>
<trkpt lat="46.32061318" lon="7.54275380"><ele></ele><time>2014-5-28T3:51:53Z</time></trkpt>
<trkpt lat="46.32060648" lon="7.54277333"><ele></ele><time>2014-5-28T3:51:56Z</time></trkpt>
<trkpt lat="46.32060044" lon="7.54281574"><ele></ele><time>2014-5-28T3:51:59Z</time></trkpt>
<trkpt lat="46.32061779" lon="7.54283485"><ele></ele><time>2014-5-28T3:52:2Z</time></trkpt>
<trkpt lat="46.32071662" lon="7.54285899"><ele></ele><time>2014-5-28T3:52:5Z</time></trkpt>
<trkpt lat="46.32085576" lon="7.54285195"><ele></ele><time>2014-5-28T3:52:8Z</time></trkpt>
<trkpt lat="46.32091242" lon="7.54285748"><ele></ele><time>2014-5-28T3:52:11Z</time></trkpt>
<trkpt lat="46.32095626" lon="7.54286955"><ele></ele><time>2014-5-28T3:52:14Z</time></trkpt>
<trkpt lat="46.32107126" lon="7.54288916"><ele></ele><time>2014-5-28T3:52:17Z</time></trkpt>
<trkpt lat="46.32117695" lon="7.54291892"><ele></ele><time>2014-5-28T3:52:20Z</time></trkpt>
<trkpt lat="46.32129028" lon="7.54292772"><ele></ele><time>2014-5-28T3:52:23Z</time></trkpt>
<trkpt lat="46.32134149" lon="7.54290476"><ele></ele><time>2014-5-28T3:52:26Z</time></trkpt>
<trkpt lat="46.32143746" lon="7.54276738"><ele></ele><time>2014-5-28T3:52:29Z</time></trkpt>
<trkpt lat="46.32146085" lon="7.54272245"><ele></ele><time>2014-5-28T3:52:32Z</time></trkpt>
<trkpt lat="46.32155598" lon="7.54264307"><ele></ele><time>2014-5-28T3:52:35Z</time></trkpt>
<trkpt lat="46.32161658" lon="7.54260016"><ele></ele><time>2014-5-28T3:52:38Z</time></trkpt>
<trkpt lat="46.32173996" lon="7.54256965"><ele></ele><time>2014-5-28T3:52:41Z</time></trkpt>
<trkpt lat="46.32180719" lon="7.54256940"><ele></ele><time>2014-5-28T3:52:44Z</time></trkpt>
<trkpt lat="46.32189897" lon="7.54248918"><ele></ele><time>2014-5-28T3:52:47Z</time></trkpt>
<trkpt lat="46.32192135" lon="7.54243813"><ele></ele><time>2014-5-28T3:52:50Z</time></trkpt>
<trkpt lat="46.32192143" lon="7.54228575"><ele></ele><time>2014-5-28T3:52:53Z</time></trkpt>
<trkpt lat="46.32191246" lon="7.54203505"><ele></ele><time>2014-5-28T3:52:56Z</time></trkpt>
<trkpt lat="46.32196208" lon="7.54181469"><ele></ele><time>2014-5-28T3:52:59Z</time></trkpt>
<trkpt lat="46.32196393" lon="7.54171645"><ele></ele><time>2014-5-28T3:53:2Z</time></trkpt>
<trkpt lat="46.32188472" lon="7.54144379"><ele></ele><time>2014-5-28T3:53:5Z</time></trkpt>
<trkpt lat="46.32182672" lon="7.54139149"><ele></ele><time>2014-5-28T3:53:8Z</time></trkpt>
<trkpt lat="46.32174768" lon="7.54126157"><ele></ele><time>2014-5-28T3:53:11Z</time></trkpt>
<trkpt lat="46.32179629" lon="7.54098513"><ele></ele><time>2014-5-28T3:53:14Z</time></trkpt>
<trkpt lat="46.32181507" lon="7.54077927"><ele></ele><time>2014-5-28T3:53:17Z</time></trkpt>
<trkpt lat="46.32173602" lon="7.54062882"><ele></ele><time>2014-5-28T3:53:20Z</time></trkpt>
<trkpt lat="46.32173670" lon="7.54036998"><ele></ele><time>2014-5-28T3:53:23Z</time></trkpt>
<trkpt lat="46.32176436" lon="7.53991258"><ele></ele><time>2014-5-28T3:53:26Z</time></trkpt>
<trkpt lat="46.32185178" lon="7.53977227"><ele></ele><time>2014-5-28T3:53:29Z</time></trkpt>
<trkpt lat="46.32201112" lon="7.53947748"><ele></ele><time>2014-5-28T3:53:32Z</time></trkpt>
<trkpt lat="46.32211413" lon="7.53933214"><ele></ele><time>2014-5-28T3:53:35Z</time></trkpt>
<trkpt lat="46.32215546" lon="7.53925812"><ele></ele><time>2014-5-28T3:53:38Z</time></trkpt>
<trkpt lat="46.32225897" lon="7.53896283"><ele></ele><time>2014-5-28T3:53:41Z</time></trkpt>
<trkpt lat="46.32226802" lon="7.53893576"><ele></ele><time>2014-5-28T3:53:44Z</time></trkpt>
<trkpt lat="46.32235687" lon="7.53876879"><ele></ele><time>2014-5-28T3:53:47Z</time></trkpt>
<trkpt lat="46.32245234" lon="7.53847375"><ele></ele><time>2014-5-28T3:53:50Z</time></trkpt>
<trkpt lat="46.32254756" lon="7.53816144"><ele></ele><time>2014-5-28T3:53:53Z</time></trkpt>
<trkpt lat="46.32257489" lon="7.53804694"><ele></ele><time>2014-5-28T3:53:56Z</time></trkpt>
<trkpt lat="46.32263373" lon="7.53786388"><ele></ele><time>2014-5-28T3:53:59Z</time></trkpt>
<trkpt lat="46.32262685" lon="7.53785969"><ele></ele><time>2014-5-28T3:54:2Z</time></trkpt>
<trkpt lat="46.32263297" lon="7.53769984"><ele></ele><time>2014-5-28T3:54:5Z</time></trkpt>
<trkpt lat="46.32265854" lon="7.53753447"><ele></ele><time>2014-5-28T3:54:8Z</time></trkpt>
<trkpt lat="46.32269986" lon="7.53715913"><ele></ele><time>2014-5-28T3:54:11Z</time></trkpt>
<trkpt lat="46.32276365" lon="7.53687766"><ele></ele><time>2014-5-28T3:54:14Z</time></trkpt>
<trkpt lat="46.32277513" lon="7.53670868"><ele></ele><time>2014-5-28T3:54:17Z</time></trkpt>
<trkpt lat="46.32277052" lon="7.53646008"><ele></ele><time>2014-5-28T3:54:20Z</time></trkpt>
<trkpt lat="46.32275753" lon="7.53630736"><ele></ele><time>2014-5-28T3:54:23Z</time></trkpt>
<trkpt lat="46.32275677" lon="7.53609647"><ele></ele><time>2014-5-28T3:54:26Z</time></trkpt>
<trkpt lat="46.32272693" lon="7.53590134"><ele></ele><time>2014-5-28T3:54:29Z</time></trkpt>
<trkpt lat="46.32265124" lon="7.53573462"><ele></ele><time>2014-5-28T3:54:32Z</time></trkpt>
<trkpt lat="46.32264144" lon="7.53567159"><ele></ele><time>2014-5-28T3:54:35Z</time></trkpt>
<trkpt lat="46.32269952" lon="7.53533984"><ele></ele><time>2014-5-28T3:54:38Z</time></trkpt>
<trkpt lat="46.32272232" lon="7.53529977"><ele></ele><time>2014-5-28T3:54:41Z</time></trkpt>
<trkpt lat="46.32274554" lon="7.53507656"><ele></ele><time>2014-5-28T3:54:44Z</time></trkpt>
<trkpt lat="46.32279893" lon="7.53488998"><ele></ele><time>2014-5-28T3:54:47Z</time></trkpt>
<trkpt lat="46.32285694" lon="7.53462804"><ele></ele><time>2014-5-28T3:54:50Z</time></trkpt>
<trkpt lat="46.32289843" lon="7.53450885"><ele></ele><time>2014-5-28T3:54:53Z</time></trkpt>
<trkpt lat="46.32294956" lon="7.53432940"><ele></ele><time>2014-5-28T3:54:56Z</time></trkpt>
<trkpt lat="46.32301049" lon="7.53411113"><ele></ele><time>2014-5-28T3:54:59Z</time></trkpt>
<trkpt lat="46.32300303" lon="7.53409194"><ele></ele><time>2014-5-28T3:55:2Z</time></trkpt>
<trkpt lat="46.32275510" lon="7.53386789"><ele></ele><time>2014-5-28T3:55:5Z</time></trkpt>
<trkpt lat="46.32264035" lon="7.53377720"><ele></ele><time>2014-5-28T3:55:8Z</time></trkpt>
<trkpt lat="46.32250263" lon="7.53367737"><ele></ele><time>2014-5-28T3:55:11Z</time></trkpt>
<trkpt lat="46.32240130" lon="7.53364569"><ele></ele><time>2014-5-28T3:55:14Z</time></trkpt>
<trkpt lat="46.32229032" lon="7.53342650"><ele></ele><time>2014-5-28T3:55:17Z</time></trkpt>
<trkpt lat="46.32243432" lon="7.53304546"><ele></ele><time>2014-5-28T3:55:20Z</time></trkpt>
<trkpt lat="46.32234195" lon="7.53257322"><ele></ele><time>2014-5-28T3:55:23Z</time></trkpt>
<trkpt lat="46.32232108" lon="7.53235077"><ele></ele><time>2014-5-28T3:55:26Z</time></trkpt>
<trkpt lat="46.32221522" lon="7.53231296"><ele></ele><time>2014-5-28T3:55:29Z</time></trkpt>
<trkpt lat="46.32206107" lon="7.53229209"><ele></ele><time>2014-5-28T3:55:32Z</time></trkpt>
<trkpt lat="46.32199142" lon="7.53222143"><ele></ele><time>2014-5-28T3:55:35Z</time></trkpt>
<trkpt lat="46.32191917" lon="7.53207140"><ele></ele><time>2014-5-28T3:55:38Z</time></trkpt>
<trkpt lat="46.32193627" lon="7.53183939"><ele></ele><time>2014-5-28T3:55:41Z</time></trkpt>
<trkpt lat="46.32202319" lon="7.53173084"><ele></ele><time>2014-5-28T3:55:44Z</time></trkpt>
<trkpt lat="46.32208706" lon="7.53165456"><ele></ele><time>2014-5-28T3:55:47Z</time></trkpt>
<trkpt lat="46.32201372" lon="7.53144803"><ele></ele><time>2014-5-28T3:55:50Z</time></trkpt>
<trkpt lat="46.32199125" lon="7.53124058"><ele></ele><time>2014-5-28T3:55:53Z</time></trkpt>
<trkpt lat="46.32201849" lon="7.53105358"><ele></ele><time>2014-5-28T3:55:56Z</time></trkpt>
<trkpt lat="46.32210994" lon="7.53083607"><ele></ele><time>2014-5-28T3:55:59Z</time></trkpt>
<trkpt lat="46.32217046" lon="7.53060398"><ele></ele><time>2014-5-28T3:56:2Z</time></trkpt>
<trkpt lat="46.32215973" lon="7.53056760"><ele></ele><time>2014-5-28T3:56:5Z</time></trkpt>
<trkpt lat="46.32214615" lon="7.53050365"><ele></ele><time>2014-5-28T3:56:8Z</time></trkpt>
<trkpt lat="46.32216744" lon="7.53024808"><ele></ele><time>2014-5-28T3:56:11Z</time></trkpt>
<trkpt lat="46.32215638" lon="7.53017038"><ele></ele><time>2014-5-28T3:56:14Z</time></trkpt>
<trkpt lat="46.32217566" lon="7.53007994"><ele></ele><time>2014-5-28T3:56:17Z</time></trkpt>
<trkpt lat="46.32217507" lon="7.53000350"><ele></ele><time>2014-5-28T3:56:20Z</time></trkpt>
<trkpt lat="46.32217205" lon="7.52985002"><ele></ele><time>2014-5-28T3:56:23Z</time></trkpt>
<trkpt lat="46.32214305" lon="7.52980552"><ele></ele><time>2014-5-28T3:56:26Z</time></trkpt>
<trkpt lat="46.32204917" lon="7.52967208"><ele></ele><time>2014-5-28T3:56:29Z</time></trkpt>
<trkpt lat="46.32204113" lon="7.52982873"><ele></ele><time>2014-5-28T3:56:32Z</time></trkpt>
<trkpt lat="46.32190215" lon="7.52977735"><ele></ele><time>2014-5-28T3:56:35Z</time></trkpt>
<trkpt lat="46.32187550" lon="7.52977300"><ele></ele><time>2014-5-28T3:56:38Z</time></trkpt>
<trkpt lat="46.32161264" lon="7.53017784"><ele></ele><time>2014-5-28T3:56:41Z</time></trkpt>
<trkpt lat="46.32151189" lon="7.53029536"><ele></ele><time>2014-5-28T3:56:44Z</time></trkpt>
<trkpt lat="46.32149924" lon="7.53029519"><ele></ele><time>2014-5-28T3:56:47Z</time></trkpt>
<trkpt lat="46.32141810" lon="7.53034305"><ele></ele><time>2014-5-28T3:56:50Z</time></trkpt>
<trkpt lat="46.32119288" lon="7.53051052"><ele></ele><time>2014-5-28T3:56:53Z</time></trkpt>
<trkpt lat="46.32108173" lon="7.53054547"><ele></ele><time>2014-5-28T3:56:56Z</time></trkpt>
<trkpt lat="46.32104619" lon="7.53050817"><ele></ele><time>2014-5-28T3:56:59Z</time></trkpt>
<trkpt lat="46.32097537" lon="7.53021925"><ele></ele><time>2014-5-28T3:57:2Z</time></trkpt>
<trkpt lat="46.32102583" lon="7.52985455"><ele></ele><time>2014-5-28T3:57:5Z</time></trkpt>
<trkpt lat="46.32103035" lon="7.52957359"><ele></ele><time>2014-5-28T3:57:8Z</time></trkpt>
<trkpt lat="46.32099087" lon="7.52942883"><ele></ele><time>2014-5-28T3:57:11Z</time></trkpt>
<trkpt lat="46.32097126" lon="7.52935834"><ele></ele><time>2014-5-28T3:57:14Z</time></trkpt>
<trkpt lat="46.32063892" lon="7.52918299"><ele></ele><time>2014-5-28T3:57:17Z</time></trkpt>
<trkpt lat="46.32046323" lon="7.52882467"><ele></ele><time>2014-5-28T3:57:20Z</time></trkpt>
<trkpt lat="46.32046239" lon="7.52880103"><ele></ele><time>2014-5-28T3:57:23Z</time></trkpt>
<trkpt lat="46.32048989" lon="7.52859467"><ele></ele><time>2014-5-28T3:57:26Z</time></trkpt>
<trkpt lat="46.32045535" lon="7.52844312"><ele></ele><time>2014-5-28T3:57:29Z</time></trkpt>
<trkpt lat="46.32043214" lon="7.52831362"><ele></ele><time>2014-5-28T3:57:32Z</time></trkpt>
<trkpt lat="46.32040649" lon="7.52828068"><ele></ele><time>2014-5-28T3:57:35Z</time></trkpt>
<trkpt lat="46.32029928" lon="7.52788246"><ele></ele><time>2014-5-28T3:57:38Z</time></trkpt>
<trkpt lat="46.32027816" lon="7.52776796"><ele></ele><time>2014-5-28T3:57:41Z</time></trkpt>
<trkpt lat="46.32021597" lon="7.52754877"><ele></ele><time>2014-5-28T3:57:44Z</time></trkpt>
<trkpt lat="46.32017833" lon="7.52754844"><ele></ele><time>2014-5-28T3:57:47Z</time></trkpt>
<trkpt lat="46.32013307" lon="7.52757568"><ele></ele><time>2014-5-28T3:57:50Z</time></trkpt>
<trkpt lat="46.32002788" lon="7.52757736"><ele></ele><time>2014-5-28T3:57:53Z</time></trkpt>
<trkpt lat="46.31997742" lon="7.52785077"><ele></ele><time>2014-5-28T3:57:56Z</time></trkpt>
<trkpt lat="46.31996132" lon="7.52787726"><ele></ele><time>2014-5-28T3:57:59Z</time></trkpt>
<trkpt lat="46.31982244" lon="7.52829057"><ele></ele><time>2014-5-28T3:58:2Z</time></trkpt>
<trkpt lat="46.31965647" lon="7.52861470"><ele></ele><time>2014-5-28T3:58:5Z</time></trkpt>
<trkpt lat="46.31960283" lon="7.52895568"><ele></ele><time>2014-5-28T3:58:8Z</time></trkpt>
<trkpt lat="46.31943025" lon="7.52937787"><ele></ele><time>2014-5-28T3:58:11Z</time></trkpt>
<trkpt lat="46.31922405" lon="7.52964525"><ele></ele><time>2014-5-28T3:58:14Z</time></trkpt>
<trkpt lat="46.31910914" lon="7.52969865"><ele></ele><time>2014-5-28T3:58:17Z</time></trkpt>
<trkpt lat="46.31902255" lon="7.52986863"><ele></ele><time>2014-5-28T3:58:20Z</time></trkpt>
<trkpt lat="46.31896128" lon="7.53010894"><ele></ele><time>2014-5-28T3:58:23Z</time></trkpt>
<trkpt lat="46.31893555" lon="7.53015404"><ele></ele><time>2014-5-28T3:58:26Z</time></trkpt>
<trkpt lat="46.31888350" lon="7.53032729"><ele></ele><time>2014-5-28T3:58:29Z</time></trkpt>
<trkpt lat="46.31879859" lon="7.53042544"><ele></ele><time>2014-5-28T3:58:32Z</time></trkpt>
<trkpt lat="46.31873262" lon="7.53059124"><ele></ele><time>2014-5-28T3:58:35Z</time></trkpt>
<trkpt lat="46.31872944" lon="7.53064329"><ele></ele><time>2014-5-28T3:58:38Z</time></trkpt>
<trkpt lat="46.31846583" lon="7.53106917"><ele></ele><time>2014-5-28T3:58:41Z</time></trkpt>
<trkpt lat="46.31841654" lon="7.53110547"><ele></ele><time>2014-5-28T3:58:44Z</time></trkpt>
<trkpt lat="46.31818545" lon="7.53109147"><ele></ele><time>2014-5-28T3:58:47Z</time></trkpt>
<trkpt lat="46.31809006" lon="7.53109608"><ele></ele><time>2014-5-28T3:58:50Z</time></trkpt>
<trkpt lat="46.31772486" lon="7.53105635"><ele></ele><time>2014-5-28T3:58:53Z</time></trkpt>
<trkpt lat="46.31750467" lon="7.53102022"><ele></ele><time>2014-5-28T3:58:56Z</time></trkpt>
<trkpt lat="46.31725263" lon="7.53103003"><ele></ele><time>2014-5-28T3:58:59Z</time></trkpt>
<trkpt lat="46.31710729" lon="7.53102047"><ele></ele><time>2014-5-28T3:59:2Z</time></trkpt>
<trkpt lat="46.31689765" lon="7.53098343"><ele></ele><time>2014-5-28T3:59:5Z</time></trkpt>
<trkpt lat="46.31678089" lon="7.53082979"><ele></ele><time>2014-5-28T3:59:8Z</time></trkpt>
<trkpt lat="46.31670596" lon="7.53063616"><ele></ele><time>2014-5-28T3:59:11Z</time></trkpt>
<trkpt lat="46.31668769" lon="7.53047523"><ele></ele><time>2014-5-28T3:59:14Z</time></trkpt>
<trkpt lat="46.31654905" lon="7.53008245"><ele></ele><time>2014-5-28T3:59:17Z</time></trkpt>
<trkpt lat="46.31650178" lon="7.53000836"><ele></ele><time>2014-5-28T3:59:20Z</time></trkpt>
<trkpt lat="46.31635853" lon="7.52988489"><ele></ele><time>2014-5-28T3:59:23Z</time></trkpt>
<trkpt lat="46.31631779" lon="7.52998916"><ele></ele><time>2014-5-28T3:59:26Z</time></trkpt>
<trkpt lat="46.31623398" lon="7.53002227"><ele></ele><time>2014-5-28T3:59:29Z</time></trkpt>
<trkpt lat="46.31611437" lon="7.53016862"><ele></ele><time>2014-5-28T3:59:32Z</time></trkpt>
<trkpt lat="46.31589937" lon="7.53020894"><ele></ele><time>2014-5-28T3:59:35Z</time></trkpt>
<trkpt lat="46.31588110" lon="7.53021112"><ele></ele><time>2014-5-28T3:59:38Z</time></trkpt>
<trkpt lat="46.31558329" lon="7.53025026"><ele></ele><time>2014-5-28T3:59:41Z</time></trkpt>
<trkpt lat="46.31555186" lon="7.53025412"><ele></ele><time>2014-5-28T3:59:44Z</time></trkpt>
<trkpt lat="46.31540316" lon="7.53022713"><ele></ele><time>2014-5-28T3:59:47Z</time></trkpt>
<trkpt lat="46.31524223" lon="7.53027172"><ele></ele><time>2014-5-28T3:59:50Z</time></trkpt>
<trkpt lat="46.31502380" lon="7.53050189"><ele></ele><time>2014-5-28T3:59:53Z</time></trkpt>
<trkpt lat="46.31484308" lon="7.53071705"><ele></ele><time>2014-5-28T3:59:56Z</time></trkpt>
<trkpt lat="46.31458836" lon="7.53045855"><ele></ele><time>2014-5-28T3:59:59Z</time></trkpt>
<trkpt lat="46.31435844" lon="7.53026635"><ele></ele><time>2014-5-28T4:0:2Z</time></trkpt>
<trkpt lat="46.31433095" lon="7.53025328"><ele></ele><time>2014-5-28T4:0:5Z</time></trkpt>
<trkpt lat="46.31428694" lon="7.53025378"><ele></ele><time>2014-5-28T4:0:8Z</time></trkpt>
<trkpt lat="46.31425509" lon="7.53025227"><ele></ele><time>2014-5-28T4:0:11Z</time></trkpt>
<trkpt lat="46.31403976" lon="7.53020525"><ele></ele><time>2014-5-28T4:0:14Z</time></trkpt>
<trkpt lat="46.31381219" lon="7.53032838"><ele></ele><time>2014-5-28T4:0:17Z</time></trkpt>
<trkpt lat="46.31357029" lon="7.53040348"><ele></ele><time>2014-5-28T4:0:20Z</time></trkpt>
<trkpt lat="46.31346862" lon="7.53073214"><ele></ele><time>2014-5-28T4:0:23Z</time></trkpt>
<trkpt lat="46.31330006" lon="7.53098384"><ele></ele><time>2014-5-28T4:0:26Z</time></trkpt>
<trkpt lat="46.31318623" lon="7.53114955"><ele></ele><time>2014-5-28T4:0:29Z</time></trkpt>
<trkpt lat="46.31320987" lon="7.53110982"><ele></ele><time>2014-5-28T4:0:32Z</time></trkpt>
<trkpt lat="46.31322512" lon="7.53104914"><ele></ele><time>2014-5-28T4:0:35Z</time></trkpt>
<trkpt lat="46.31322999" lon="7.53105065"><ele></ele><time>2014-5-28T4:0:38Z</time></trkpt>
<trkpt lat="46.31323074" lon="7.53091872"><ele></ele><time>2014-5-28T4:0:41Z</time></trkpt>
<trkpt lat="46.31327935" lon="7.53089357"><ele></ele><time>2014-5-28T4:0:44Z</time></trkpt>
<trkpt lat="46.31325924" lon="7.53097018"><ele></ele><time>2014-5-28T4:0:47Z</time></trkpt>
<trkpt lat="46.31312865" lon="7.53114712"><ele></ele><time>2014-5-28T4:0:50Z</time></trkpt>
<trkpt lat="46.31310300" lon="7.53135189"><ele></ele><time>2014-5-28T4:0:53Z</time></trkpt>
<trkpt lat="46.31310694" lon="7.53137897"><ele></ele><time>2014-5-28T4:0:56Z</time></trkpt>
<trkpt lat="46.31320828" lon="7.53150855"><ele></ele><time>2014-5-28T4:0:59Z</time></trkpt>
<trkpt lat="46.31328179" lon="7.53158826"><ele></ele><time>2014-5-28T4:1:2Z</time></trkpt>
<trkpt lat="46.31333459" lon="7.53171659"><ele></ele><time>2014-5-28T4:1:5Z</time></trkpt>
<trkpt lat="46.31338966" lon="7.53172145"><ele></ele><time>2014-5-28T4:1:8Z</time></trkpt>
<trkpt lat="46.31337558" lon="7.53180158"><ele></ele><time>2014-5-28T4:1:11Z</time></trkpt>
<trkpt lat="46.31340148" lon="7.53182086"><ele></ele><time>2014-5-28T4:1:14Z</time></trkpt>
<trkpt lat="46.31342327" lon="7.53183637"><ele></ele><time>2014-5-28T4:1:17Z</time></trkpt>
<trkpt lat="46.31351413" lon="7.53191398"><ele></ele><time>2014-5-28T4:1:20Z</time></trkpt>
<trkpt lat="46.31345135" lon="7.53201063"><ele></ele><time>2014-5-28T4:1:23Z</time></trkpt>
<trkpt lat="46.31348622" lon="7.53212320"><ele></ele><time>2014-5-28T4:1:26Z</time></trkpt>
<trkpt lat="46.31345772" lon="7.53220165"><ele></ele><time>2014-5-28T4:1:29Z</time></trkpt>
<trkpt lat="46.31345714" lon="7.53223484"><ele></ele><time>2014-5-28T4:1:32Z</time></trkpt>
</trkseg></trk></gpx>